createdAt,value
2022-11-17T00:01:55.432Z,2.61
2022-11-17T00:04:30.097Z,2.62
2022-11-17T00:07:02.127Z,2.61
2022-11-17T00:09:34.011Z,2.61
2022-11-17T00:12:29.791Z,2.61
2022-11-17T00:15:04.420Z,2.62
2022-11-17T00:17:36.233Z,2.61
2022-11-17T00:20:30.058Z,2.59
2022-11-17T00:23:01.898Z,2.58
2022-11-17T00:25:34.220Z,2.57
2022-11-17T00:28:06.558Z,2.59
2022-11-17T00:30:55.063Z,2.61
2022-11-17T00:33:44.441Z,2.61
2022-11-17T00:36:17.753Z,2.63
2022-11-17T00:38:49.571Z,2.63
2022-11-17T00:41:21.341Z,2.62
2022-11-17T00:43:53.186Z,2.62
2022-11-17T00:46:25.233Z,2.62
2022-11-17T00:48:57.174Z,2.63
2022-11-17T00:51:28.986Z,2.62
2022-11-17T00:54:00.907Z,2.59
2022-11-17T00:56:32.794Z,2.59
2022-11-17T00:59:04.950Z,2.59
2022-11-17T01:01:37.385Z,2.58
2022-11-17T01:04:09.721Z,2.57
2022-11-17T01:06:43.912Z,2.58
2022-11-17T01:09:17.894Z,2.61
2022-11-17T01:11:51.458Z,2.61
2022-11-17T01:14:25.692Z,2.60
2022-11-17T01:16:57.751Z,2.61
2022-11-17T01:19:29.774Z,2.62
2022-11-17T01:22:01.882Z,2.63
2022-11-17T01:24:33.730Z,2.62
2022-11-17T01:27:05.565Z,2.61
2022-11-17T01:29:37.533Z,2.60
2022-11-17T01:32:09.430Z,2.58
2022-11-17T01:34:41.705Z,2.58
2022-11-17T01:37:22.428Z,2.57
2022-11-17T01:39:54.453Z,2.57
2022-11-17T01:42:28.185Z,2.58
2022-11-17T01:45:05.693Z,2.57
2022-11-17T01:47:43.832Z,2.56
2022-11-17T01:50:35.431Z,2.53
2022-11-17T01:53:09.857Z,2.50
2022-11-17T01:55:47.270Z,2.48
2022-11-17T01:58:22.680Z,2.45
2022-11-17T02:00:55.443Z,2.45
2022-11-17T02:03:28.149Z,2.44
2022-11-17T02:06:07.313Z,2.41
2022-11-17T02:08:42.250Z,2.39
2022-11-17T02:11:17.287Z,2.39
2022-11-17T02:13:50.245Z,2.40
2022-11-17T02:16:22.050Z,2.41
2022-11-17T02:18:54.117Z,2.41
2022-11-17T02:21:59.161Z,2.39
2022-11-17T02:24:58.006Z,2.38
2022-11-17T02:27:54.615Z,2.37
2022-11-17T02:30:31.309Z,2.39
2022-11-17T02:33:08.771Z,2.39
2022-11-17T02:35:47.815Z,2.37
2022-11-17T02:38:30.830Z,2.35
2022-11-17T02:41:10.349Z,2.36
2022-11-17T02:44:03.695Z,2.35
2022-11-17T02:46:42.060Z,2.34
2022-11-17T02:49:14.844Z,2.34
2022-11-17T02:51:49.344Z,2.33
2022-11-17T02:54:22.763Z,2.32
2022-11-17T02:56:54.693Z,2.31
2022-11-17T02:59:32.022Z,2.32
2022-11-17T03:02:21.148Z,2.34
2022-11-17T03:05:04.568Z,2.36
2022-11-17T03:07:58.517Z,2.37
2022-11-17T03:10:42.445Z,2.35
2022-11-17T03:13:19.657Z,2.33
2022-11-17T03:15:56.036Z,2.31
2022-11-17T03:18:36.663Z,2.30
2022-11-17T03:21:17.441Z,2.26
2022-11-17T03:23:52.344Z,2.23
2022-11-17T03:26:28.415Z,2.20
2022-11-17T03:29:01.175Z,2.20
2022-11-17T03:31:36.317Z,2.19
2022-11-17T03:34:12.037Z,2.16
2022-11-17T03:36:49.212Z,2.12
2022-11-17T03:39:29.023Z,2.08
2022-11-17T03:42:04.364Z,2.05
2022-11-17T03:44:39.820Z,2.04
2022-11-17T03:47:13.731Z,2.04
2022-11-17T03:49:50.660Z,2.04
2022-11-17T03:52:22.719Z,2.05
2022-11-17T03:54:54.864Z,2.04
2022-11-17T03:57:34.312Z,2.02
2022-11-17T04:00:08.288Z,1.99
2022-11-17T04:02:47.610Z,1.96
2022-11-17T04:05:20.592Z,1.92
2022-11-17T04:07:52.352Z,1.89
2022-11-17T04:10:26.759Z,1.88
2022-11-17T04:13:15.840Z,1.87
2022-11-17T04:15:59.626Z,1.86
2022-11-17T04:18:31.502Z,1.86
2022-11-17T04:21:03.353Z,1.86
2022-11-17T04:23:35.411Z,1.83
2022-11-17T04:26:24.896Z,1.81
2022-11-17T04:28:56.641Z,1.80
2022-11-17T04:31:30.319Z,1.80
2022-11-17T04:34:04.166Z,1.81
2022-11-17T04:36:40.790Z,1.84
2022-11-17T04:39:14.377Z,1.85
2022-11-17T04:41:56.967Z,1.84
2022-11-17T04:44:30.163Z,1.85
2022-11-17T04:47:03.671Z,1.85
2022-11-17T04:49:35.675Z,1.84
2022-11-17T04:52:07.852Z,1.84
2022-11-17T04:54:39.575Z,1.80
2022-11-17T04:57:11.279Z,1.76
2022-11-17T04:59:43.046Z,1.72
2022-11-17T05:02:14.896Z,1.68
2022-11-17T05:04:58.620Z,1.67
2022-11-17T05:07:30.613Z,1.67
2022-11-17T05:10:02.351Z,1.66
2022-11-17T05:12:51.887Z,1.62
2022-11-17T05:15:44.117Z,1.57
2022-11-17T05:18:15.878Z,1.49
2022-11-17T05:20:47.617Z,1.44
2022-11-17T05:23:37.734Z,1.40
2022-11-17T05:26:09.704Z,1.37
2022-11-17T05:28:41.514Z,1.34
2022-11-17T05:31:13.744Z,1.33
2022-11-17T05:33:47.939Z,1.30
2022-11-17T05:36:20.195Z,1.30
2022-11-17T05:38:52.517Z,1.31
2022-11-17T05:41:25.125Z,1.30
2022-11-17T05:43:57.745Z,1.30
2022-11-17T05:46:29.656Z,1.30
2022-11-17T05:49:01.543Z,1.30
2022-11-17T05:51:33.459Z,1.30
2022-11-17T05:54:05.665Z,1.30
2022-11-17T05:56:43.444Z,1.30
2022-11-17T05:59:27.768Z,1.28
2022-11-17T06:02:04.794Z,1.26
2022-11-17T06:04:37.148Z,1.25
2022-11-17T06:07:09.634Z,1.25
2022-11-17T06:09:43.378Z,1.24
2022-11-17T06:12:15.561Z,1.23
2022-11-17T06:14:47.556Z,1.22
2022-11-17T06:17:24.157Z,1.21
2022-11-17T06:20:02.566Z,1.22
2022-11-17T06:22:33.682Z,1.23
2022-11-17T06:25:09.465Z,1.24
2022-11-17T06:27:42.472Z,1.27
2022-11-17T06:30:15.523Z,1.30
2022-11-17T06:32:49.622Z,1.32
2022-11-17T06:35:21.562Z,1.34
2022-11-17T06:37:53.383Z,1.35
2022-11-17T06:40:25.230Z,1.36
2022-11-17T06:43:08.695Z,1.38
2022-11-17T06:45:42.385Z,1.39
2022-11-17T06:48:16.510Z,1.42
2022-11-17T06:50:50.977Z,1.45
2022-11-17T06:53:26.516Z,1.47
2022-11-17T06:56:08.393Z,1.48
2022-11-17T06:58:41.469Z,1.49
2022-11-17T07:01:15.681Z,1.50
2022-11-17T07:03:47.531Z,1.51
2022-11-17T07:06:20.071Z,1.51
2022-11-17T07:08:52.092Z,1.53
2022-11-17T07:11:24.187Z,1.54
2022-11-17T07:13:56.097Z,1.52
2022-11-17T07:16:29.300Z,1.47
2022-11-17T07:19:03.576Z,1.44
2022-11-17T07:21:35.644Z,1.45
2022-11-17T07:24:08.749Z,1.45
2022-11-17T07:26:40.842Z,1.44
2022-11-17T07:29:12.738Z,1.45
2022-11-17T07:31:44.510Z,1.48
2022-11-17T07:34:16.433Z,1.52
2022-11-17T07:36:49.149Z,1.55
2022-11-17T07:39:21.949Z,1.58
2022-11-17T07:41:54.059Z,1.61
2022-11-17T07:44:25.949Z,1.64
2022-11-17T07:46:58.435Z,1.64
2022-11-17T07:49:30.965Z,1.64
2022-11-17T07:52:03.180Z,1.64
2022-11-17T07:54:35.031Z,1.64
2022-11-17T07:57:06.952Z,1.65
2022-11-17T07:59:38.662Z,1.65
2022-11-17T08:02:11.685Z,1.67
2022-11-17T08:04:43.497Z,1.72
2022-11-17T08:07:15.489Z,1.75
2022-11-17T08:09:47.477Z,1.80
2022-11-17T08:12:19.385Z,1.83
2022-11-17T08:14:51.792Z,1.83
2022-11-17T08:17:24.305Z,1.84
2022-11-17T08:19:56.178Z,1.87
2022-11-17T08:22:28.070Z,1.89
2022-11-17T08:24:59.898Z,1.91
2022-11-17T08:27:31.677Z,1.94
2022-11-17T08:30:03.725Z,1.94
2022-11-17T08:32:35.825Z,1.93
2022-11-17T08:35:09.126Z,1.94
2022-11-17T08:37:44.557Z,1.98
2022-11-17T08:40:18.149Z,2.01
2022-11-17T08:42:59.143Z,2.04
2022-11-17T08:45:32.683Z,2.08
2022-11-17T08:48:07.481Z,2.12
2022-11-17T08:50:39.448Z,2.15
2022-11-17T08:53:16.034Z,2.17
2022-11-17T08:55:48.244Z,2.16
2022-11-17T08:58:20.087Z,2.18
2022-11-17T09:00:52.143Z,2.18
2022-11-17T09:03:24.732Z,2.13
2022-11-17T09:05:56.800Z,2.10
2022-11-17T09:08:44.869Z,2.05
2022-11-17T09:11:18.334Z,1.99
2022-11-17T09:13:50.297Z,1.99
2022-11-17T09:16:24.171Z,2.00
2022-11-17T09:18:58.514Z,2.00
2022-11-17T09:21:31.718Z,2.03
2022-11-17T09:24:03.769Z,2.05
2022-11-17T09:26:35.926Z,2.05
2022-11-17T09:29:07.890Z,2.07
2022-11-17T09:31:39.770Z,2.10
2022-11-17T09:34:11.927Z,2.13
2022-11-17T09:36:44.018Z,2.15
2022-11-17T09:39:15.873Z,2.18
2022-11-17T09:41:49.555Z,2.17
2022-11-17T09:44:34.397Z,2.17
2022-11-17T09:47:18.061Z,2.20
2022-11-17T09:49:59.268Z,2.20
2022-11-17T09:52:36.180Z,2.25
2022-11-17T09:55:23.052Z,2.34
2022-11-17T09:58:01.693Z,2.39
2022-11-17T10:00:35.726Z,2.42
2022-11-17T10:03:17.891Z,2.45
2022-11-17T10:05:50.739Z,2.44
2022-11-17T10:08:29.434Z,2.43
2022-11-17T10:11:21.256Z,2.45
2022-11-17T10:13:53.989Z,2.48
2022-11-17T10:16:26.311Z,2.48
2022-11-17T10:18:58.400Z,2.47
2022-11-17T10:21:32.808Z,2.46
2022-11-17T10:24:05.055Z,2.44
2022-11-17T10:26:47.841Z,2.46
2022-11-17T10:29:25.333Z,2.49
2022-11-17T10:31:58.108Z,2.47
2022-11-17T10:34:40.771Z,2.46
2022-11-17T10:37:35.997Z,2.44
2022-11-17T10:40:24.762Z,2.40
2022-11-17T10:43:22.097Z,2.34
2022-11-17T10:45:56.535Z,2.33
2022-11-17T10:48:31.159Z,2.31
2022-11-17T10:51:09.271Z,2.36
2022-11-17T10:53:46.766Z,2.37
2022-11-17T10:56:22.110Z,2.40
2022-11-17T10:59:03.386Z,2.43
2022-11-17T11:01:37.873Z,2.46
2022-11-17T11:04:28.827Z,2.48
2022-11-17T11:07:14.759Z,2.48
2022-11-17T11:09:50.920Z,2.47
2022-11-17T11:12:33.215Z,2.37
2022-11-17T11:15:28.340Z,2.27
2022-11-17T11:18:00.294Z,2.24
2022-11-17T11:20:40.695Z,2.23
2022-11-17T11:23:22.244Z,2.20
2022-11-17T11:26:02.779Z,2.17
2022-11-17T11:28:54.530Z,2.16
2022-11-17T11:31:33.742Z,2.17
2022-11-17T11:34:20.596Z,2.20
2022-11-17T11:36:58.247Z,2.19
2022-11-17T11:39:42.439Z,2.21
2022-11-17T11:42:42.528Z,2.24
2022-11-17T11:45:22.305Z,2.25
2022-11-17T11:48:14.928Z,2.28
2022-11-17T11:50:56.100Z,2.32
2022-11-17T11:53:33.450Z,2.32
2022-11-17T11:56:19.849Z,2.26
2022-11-17T11:58:55.201Z,2.16
2022-11-17T12:01:30.085Z,2.08
2022-11-17T12:04:15.995Z,2.03
2022-11-17T12:06:57.067Z,2.00
2022-11-17T12:09:57.092Z,1.97
2022-11-17T12:12:32.838Z,2.00
2022-11-17T12:15:26.602Z,2.04
2022-11-17T12:18:12.726Z,2.10
2022-11-17T12:20:55.271Z,2.12
2022-11-17T12:23:49.387Z,2.13
2022-11-17T12:26:26.933Z,2.12
2022-11-17T12:29:32.590Z,2.14
2022-11-17T12:32:05.448Z,2.17
2022-11-17T12:34:37.967Z,2.15
2022-11-17T12:37:21.993Z,2.12
2022-11-17T12:40:31.178Z,2.06
2022-11-17T12:43:26.348Z,1.98
2022-11-17T12:46:12.564Z,1.93
2022-11-17T12:48:52.479Z,1.90
2022-11-17T12:51:31.957Z,1.88
2022-11-17T12:54:20.795Z,1.82
2022-11-17T12:56:57.924Z,1.78
2022-11-17T13:00:10.805Z,1.74
2022-11-17T13:03:00.184Z,1.73
2022-11-17T13:05:32.840Z,1.70
2022-11-17T13:08:27.447Z,1.71
2022-11-17T13:11:12.111Z,1.74
2022-11-17T13:13:46.928Z,1.74
2022-11-17T13:16:22.879Z,1.73
2022-11-17T13:18:54.653Z,1.66
2022-11-17T13:21:33.870Z,1.62
2022-11-17T13:24:06.153Z,1.60
2022-11-17T13:26:38.684Z,1.56
2022-11-17T13:29:13.592Z,1.49
2022-11-17T13:31:46.176Z,1.46
2022-11-17T13:34:21.263Z,1.44
2022-11-17T13:36:57.306Z,1.43
2022-11-17T13:39:29.900Z,1.44
2022-11-17T13:42:04.326Z,1.44
2022-11-17T13:44:36.498Z,1.43
2022-11-17T13:47:22.678Z,1.43
2022-11-17T13:49:55.270Z,1.43
2022-11-17T13:52:40.408Z,1.45
2022-11-17T13:55:21.298Z,1.43
2022-11-17T13:57:59.855Z,1.40
2022-11-17T14:00:32.556Z,1.38
2022-11-17T14:03:07.080Z,1.37
2022-11-17T14:05:38.835Z,1.35
2022-11-17T14:08:30.691Z,1.35
2022-11-17T14:11:22.321Z,1.33
2022-11-17T14:13:58.878Z,1.30
2022-11-17T14:16:35.839Z,1.27
2022-11-17T14:19:25.066Z,1.28
2022-11-17T14:22:04.551Z,1.28
2022-11-17T14:24:37.730Z,1.26
2022-11-17T14:27:34.726Z,1.25
2022-11-17T14:30:09.674Z,1.20
2022-11-17T14:32:41.427Z,1.15
2022-11-17T14:37:53.523Z,1.11
2022-11-17T14:40:25.319Z,1.12
2022-11-17T14:42:57.731Z,1.15
2022-11-17T14:45:29.905Z,1.16
2022-11-17T14:48:02.293Z,1.14
2022-11-17T14:50:34.939Z,1.11
2022-11-17T14:53:07.183Z,1.07
2022-11-17T14:55:38.976Z,1.03
2022-11-17T14:58:10.952Z,1.02
2022-11-17T15:00:42.693Z,1.01
2022-11-17T15:03:14.533Z,1.02
2022-11-17T15:05:49.298Z,1.02
2022-11-17T15:08:21.180Z,1.02
2022-11-17T15:10:55.402Z,1.00
2022-11-17T15:13:27.245Z,0.94
2022-11-17T15:16:05.939Z,0.89
2022-11-17T15:18:37.961Z,0.82
2022-11-17T15:21:11.566Z,0.78
2022-11-17T15:23:44.141Z,0.77
2022-11-17T15:26:18.783Z,0.78
2022-11-17T15:28:51.564Z,0.78
2022-11-17T15:31:23.721Z,0.79
2022-11-17T15:33:55.490Z,0.81
2022-11-17T15:36:27.258Z,0.83
2022-11-17T15:38:59.170Z,0.85
2022-11-17T15:41:32.981Z,0.89
2022-11-17T15:44:05.048Z,0.93
2022-11-17T15:46:37.222Z,0.94
2022-11-17T15:49:08.974Z,0.96
2022-11-17T15:51:40.813Z,0.97
2022-11-17T15:54:19.876Z,1.00
2022-11-17T15:56:52.187Z,1.03
2022-11-17T15:59:23.957Z,1.06
2022-11-17T16:01:55.698Z,1.05
2022-11-17T16:04:27.812Z,1.03
2022-11-17T16:06:59.850Z,1.00
2022-11-17T16:09:31.666Z,0.98
2022-11-17T16:12:03.829Z,0.93
2022-11-17T16:14:35.632Z,0.91
2022-11-17T16:17:07.389Z,0.91
2022-11-17T16:19:40.390Z,0.91
2022-11-17T16:22:12.182Z,0.92
2022-11-17T16:24:43.967Z,0.91
2022-11-17T16:27:15.807Z,0.90
2022-11-17T16:29:47.591Z,0.90
2022-11-17T16:32:19.324Z,0.87
2022-11-17T16:34:51.036Z,0.85
2022-11-17T16:37:22.738Z,0.83
2022-11-17T16:39:55.212Z,0.82
2022-11-17T16:42:27.001Z,0.79
2022-11-17T16:44:58.772Z,0.75
2022-11-17T16:47:30.696Z,0.71
2022-11-17T16:50:03.624Z,0.68
2022-11-17T16:52:36.353Z,0.68
2022-11-17T16:55:09.801Z,0.67
2022-11-17T16:57:42.339Z,0.64
2022-11-17T17:00:17.893Z,0.62
2022-11-17T17:02:52.514Z,0.59
2022-11-17T17:05:24.485Z,0.58
2022-11-17T17:07:56.653Z,0.58
2022-11-17T17:10:29.005Z,0.55
2022-11-17T17:13:00.775Z,0.51
2022-11-17T17:15:33.852Z,0.47
2022-11-17T17:18:05.908Z,0.43
2022-11-17T17:20:39.097Z,0.40
2022-11-17T17:23:11.330Z,0.39
2022-11-17T17:25:43.112Z,0.39
2022-11-17T17:28:14.842Z,0.38
2022-11-17T17:30:53.873Z,0.38
2022-11-17T17:33:26.521Z,0.39
2022-11-17T17:36:04.081Z,0.41
2022-11-17T17:38:36.352Z,0.43
2022-11-17T17:41:09.709Z,0.39
2022-11-17T17:43:42.593Z,0.34
2022-11-17T17:46:16.658Z,0.28
2022-11-17T17:48:48.391Z,0.22
2022-11-17T17:51:21.809Z,0.17
2022-11-17T17:53:54.416Z,0.14
2022-11-17T17:56:27.038Z,0.12
2022-11-17T17:58:59.658Z,0.12
2022-11-17T18:01:33.247Z,0.14
2022-11-17T18:04:05.603Z,0.16
2022-11-17T18:06:39.784Z,0.16
2022-11-17T18:09:14.616Z,0.19
2022-11-17T18:11:49.842Z,0.21
2022-11-17T18:14:24.670Z,0.20
2022-11-17T18:16:56.904Z,0.20
2022-11-17T18:22:14.267Z,0.25
2022-11-17T18:24:46.103Z,0.26
2022-11-17T18:27:17.862Z,0.28
2022-11-17T18:29:50.834Z,0.28
2022-11-17T18:32:22.635Z,0.28
2022-11-17T18:34:54.399Z,0.28
2022-11-17T18:37:26.159Z,0.27
2022-11-17T18:39:57.914Z,0.27
2022-11-17T18:42:30.651Z,0.25
2022-11-17T18:45:02.570Z,0.21
2022-11-17T18:47:34.321Z,0.14
2022-11-17T18:50:06.979Z,0.08
2022-11-17T18:52:38.774Z,0.05
2022-11-17T18:55:11.919Z,0.05
2022-11-17T18:57:46.234Z,0.07
2022-11-17T19:00:19.909Z,0.08
2022-11-17T19:02:51.922Z,0.09
2022-11-17T19:05:23.779Z,0.11
2022-11-17T19:07:57.493Z,0.13
2022-11-17T19:10:29.773Z,0.16
2022-11-17T19:13:01.904Z,0.21
2022-11-17T19:15:35.217Z,0.29
2022-11-17T19:18:07.076Z,0.31
2022-11-17T19:20:40.292Z,0.31
2022-11-17T19:23:12.282Z,0.29
2022-11-17T19:25:45.568Z,0.25
2022-11-17T19:28:18.087Z,0.20
2022-11-17T19:30:50.661Z,0.21
2022-11-17T19:33:22.471Z,0.22
2022-11-17T19:35:54.257Z,0.25
2022-11-17T19:38:26.014Z,0.30
2022-11-17T19:41:01.860Z,0.35
2022-11-17T19:43:40.307Z,0.37
2022-11-17T19:46:17.721Z,0.37
2022-11-17T19:48:50.770Z,0.37
2022-11-17T19:51:24.337Z,0.35
2022-11-17T19:53:57.907Z,0.30
2022-11-17T19:56:30.615Z,0.26
2022-11-17T19:59:03.072Z,0.25
2022-11-17T20:01:35.533Z,0.27
2022-11-17T20:04:07.738Z,0.32
2022-11-17T20:06:41.281Z,0.37
2022-11-17T20:09:14.663Z,0.44
2022-11-17T20:11:46.976Z,0.47
2022-11-17T20:14:18.809Z,0.49
2022-11-17T20:16:51.683Z,0.48
2022-11-17T20:19:23.560Z,0.43
2022-11-17T20:21:55.323Z,0.38
2022-11-17T20:24:27.050Z,0.37
2022-11-17T20:26:58.775Z,0.38
2022-11-17T20:29:31.443Z,0.39
2022-11-17T20:32:03.219Z,0.38
2022-11-17T20:34:34.975Z,0.40
2022-11-17T20:37:06.974Z,0.40
2022-11-17T20:39:38.775Z,0.41
2022-11-17T20:42:11.385Z,0.46
2022-11-17T20:44:43.699Z,0.49
2022-11-17T20:47:15.455Z,0.50
2022-11-17T20:49:47.212Z,0.46
2022-11-17T20:52:19.008Z,0.40
2022-11-17T20:54:51.040Z,0.38
2022-11-17T20:57:23.137Z,0.38
2022-11-17T20:59:54.911Z,0.41
2022-11-17T21:02:26.683Z,0.45
2022-11-17T21:04:58.433Z,0.48
2022-11-17T21:07:30.367Z,0.52
2022-11-17T21:10:02.322Z,0.57
2022-11-17T21:12:34.829Z,0.60
2022-11-17T21:15:07.834Z,0.62
2022-11-17T21:17:57.192Z,0.62
2022-11-17T21:20:29.177Z,0.55
2022-11-17T21:23:00.927Z,0.49
2022-11-17T21:25:32.677Z,0.46
2022-11-17T21:28:04.545Z,0.46
2022-11-17T21:30:36.353Z,0.46
2022-11-17T21:33:08.102Z,0.48
2022-11-17T21:35:39.847Z,0.49
2022-11-17T21:38:14.022Z,0.52
2022-11-17T21:40:45.826Z,0.53
2022-11-17T21:43:17.982Z,0.53
2022-11-17T21:45:49.719Z,0.51
2022-11-17T21:48:21.615Z,0.48
2022-11-17T21:50:53.481Z,0.46
2022-11-17T21:53:25.714Z,0.49
2022-11-17T21:56:02.479Z,0.52
2022-11-17T21:58:35.174Z,0.57
2022-11-17T22:01:11.391Z,0.64
2022-11-17T22:03:43.911Z,0.68
2022-11-17T22:06:18.184Z,0.72
2022-11-17T22:08:50.781Z,0.75
2022-11-17T22:11:36.571Z,0.74
2022-11-17T22:14:11.946Z,0.75
2022-11-17T22:16:45.245Z,0.72
2022-11-17T22:19:18.636Z,0.68
2022-11-17T22:21:52.763Z,0.66
2022-11-17T22:24:25.170Z,0.63
2022-11-17T22:26:56.940Z,0.64
2022-11-17T22:29:29.681Z,0.66
2022-11-17T22:32:01.425Z,0.69
2022-11-17T22:34:33.437Z,0.71
2022-11-17T22:37:05.176Z,0.73
2022-11-17T22:39:38.372Z,0.77
2022-11-17T22:42:10.206Z,0.80
2022-11-17T22:44:41.947Z,0.80
2022-11-17T22:47:13.919Z,0.78
2022-11-17T22:49:45.693Z,0.78
2022-11-17T22:52:17.659Z,0.81
2022-11-17T22:54:49.490Z,0.83
2022-11-17T22:57:21.279Z,0.83
2022-11-17T22:59:53.201Z,0.84
2022-11-17T23:02:25.004Z,0.85
2022-11-17T23:04:57.111Z,0.86
2022-11-17T23:07:29.001Z,0.85
2022-11-17T23:10:00.808Z,0.85
2022-11-17T23:12:32.598Z,0.85
2022-11-17T23:15:04.642Z,0.83
2022-11-17T23:17:36.431Z,0.79
2022-11-17T23:20:10.634Z,0.73
2022-11-17T23:22:42.521Z,0.70
2022-11-17T23:25:14.286Z,0.69
2022-11-17T23:27:46.054Z,0.70
2022-11-17T23:30:18.698Z,0.71
2022-11-17T23:32:53.618Z,0.69
2022-11-17T23:35:25.717Z,0.69
2022-11-17T23:37:57.460Z,0.68
2022-11-17T23:40:29.282Z,0.64
2022-11-17T23:43:01.195Z,0.60
2022-11-17T23:45:32.927Z,0.55
2022-11-17T23:48:04.814Z,0.50
2022-11-17T23:50:37.758Z,0.47
2022-11-17T23:53:09.738Z,0.46
2022-11-17T23:55:41.757Z,0.48
2022-11-17T23:58:13.526Z,0.51
